sensor_id;sensor_type;location;lat;lon;timestamp;P1;durP1;ratioP1;P2;durP2;ratioP2
21084;SDS011;72320;50.082;20.000;2024-03-17T00:01:36;6.60;;;6.30;;
21084;SDS011;72320;50.082;20.000;2024-03-17T00:04:18;6.40;;;6.10;;
21084;SDS011;72320;50.082;20.000;2024-03-17T00:07:06;6.30;;;6.00;;
21084;SDS011;72320;50.082;20.000;2024-03-17T00:09:51;6.20;;;5.90;;
21084;SDS011;72320;50.082;20.000;2024-03-17T00:12:37;6.00;;;5.70;;
21084;SDS011;72320;50.082;20.000;2024-03-17T00:15:24;5.90;;;5.60;;
21084;SDS011;72320;50.082;20.000;2024-03-17T00:18:10;5.90;;;5.50;;
21084;SDS011;72320;50.082;20.000;2024-03-17T00:20:57;5.70;;;5.40;;
21084;SDS011;72320;50.082;20.000;2024-03-17T00:23:23;5.20;;;5.00;;
21084;SDS011;72320;50.082;20.000;2024-03-17T00:26:08;5.30;;;5.10;;
21084;SDS011;72320;50.082;20.000;2024-03-17T00:28:55;5.40;;;5.20;;
21084;SDS011;72320;50.082;20.000;2024-03-17T00:31:28;5.10;;;4.80;;
21084;SDS011;72320;50.082;20.000;2024-03-17T00:34:14;5.30;;;5.10;;
21084;SDS011;72320;50.082;20.000;2024-03-17T00:37:00;5.40;;;5.10;;
21084;SDS011;72320;50.082;20.000;2024-03-17T00:39:46;5.80;;;5.50;;
21084;SDS011;72320;50.082;20.000;2024-03-17T00:42:12;5.10;;;4.90;;
21084;SDS011;72320;50.082;20.000;2024-03-17T00:44:58;5.40;;;5.20;;
21084;SDS011;72320;50.082;20.000;2024-03-17T00:47:26;5.30;;;5.10;;
21084;SDS011;72320;50.082;20.000;2024-03-17T00:50:13;5.40;;;5.20;;
21084;SDS011;72320;50.082;20.000;2024-03-17T00:52:41;4.70;;;4.50;;
21084;SDS011;72320;50.082;20.000;2024-03-17T00:55:29;5.20;;;5.00;;
21084;SDS011;72320;50.082;20.000;2024-03-17T00:57:55;5.50;;;5.30;;
21084;SDS011;72320;50.082;20.000;2024-03-17T01:00:21;5.00;;;4.80;;
21084;SDS011;72320;50.082;20.000;2024-03-17T01:02:51;5.50;;;5.30;;
21084;SDS011;72320;50.082;20.000;2024-03-17T01:05:19;5.70;;;5.50;;
21084;SDS011;72320;50.082;20.000;2024-03-17T01:07:45;6.50;;;6.20;;
21084;SDS011;72320;50.082;20.000;2024-03-17T01:10:13;6.80;;;6.50;;
21084;SDS011;72320;50.082;20.000;2024-03-17T01:12:59;6.70;;;6.40;;
21084;SDS011;72320;50.082;20.000;2024-03-17T01:15:27;6.80;;;6.50;;
21084;SDS011;72320;50.082;20.000;2024-03-17T01:18:13;7.00;;;6.70;;
21084;SDS011;72320;50.082;20.000;2024-03-17T01:20:59;6.70;;;6.40;;
21084;SDS011;72320;50.082;20.000;2024-03-17T01:23:48;6.60;;;6.30;;
21084;SDS011;72320;50.082;20.000;2024-03-17T01:26:34;6.60;;;6.30;;
21084;SDS011;72320;50.082;20.000;2024-03-17T01:29:20;6.10;;;5.90;;
21084;SDS011;72320;50.082;20.000;2024-03-17T01:32:06;6.50;;;6.20;;
21084;SDS011;72320;50.082;20.000;2024-03-17T01:34:52;6.40;;;6.10;;
21084;SDS011;72320;50.082;20.000;2024-03-17T01:37:39;6.40;;;6.10;;
21084;SDS011;72320;50.082;20.000;2024-03-17T01:40:25;6.40;;;6.10;;
21084;SDS011;72320;50.082;20.000;2024-03-17T01:43:11;6.40;;;6.10;;
21084;SDS011;72320;50.082;20.000;2024-03-17T01:45:58;6.40;;;6.10;;
21084;SDS011;72320;50.082;20.000;2024-03-17T01:48:44;6.20;;;5.90;;
21084;SDS011;72320;50.082;20.000;2024-03-17T01:51:31;6.10;;;5.80;;
21084;SDS011;72320;50.082;20.000;2024-03-17T01:54:16;6.30;;;6.00;;
21084;SDS011;72320;50.082;20.000;2024-03-17T01:57:02;6.20;;;5.90;;
21084;SDS011;72320;50.082;20.000;2024-03-17T01:59:28;6.60;;;6.30;;
21084;SDS011;72320;50.082;20.000;2024-03-17T02:02:14;6.30;;;6.00;;
21084;SDS011;72320;50.082;20.000;2024-03-17T02:05:00;6.60;;;6.30;;
21084;SDS011;72320;50.082;20.000;2024-03-17T02:07:48;6.20;;;5.90;;
21084;SDS011;72320;50.082;20.000;2024-03-17T02:10:15;6.60;;;6.30;;
21084;SDS011;72320;50.082;20.000;2024-03-17T02:13:01;6.50;;;6.20;;
21084;SDS011;72320;50.082;20.000;2024-03-17T02:15:51;6.20;;;5.90;;
21084;SDS011;72320;50.082;20.000;2024-03-17T02:18:17;6.70;;;6.40;;
21084;SDS011;72320;50.082;20.000;2024-03-17T02:21:02;6.30;;;6.00;;
21084;SDS011;72320;50.082;20.000;2024-03-17T02:23:48;6.60;;;6.30;;
21084;SDS011;72320;50.082;20.000;2024-03-17T02:26:30;6.40;;;6.10;;
21084;SDS011;72320;50.082;20.000;2024-03-17T02:29:16;6.60;;;6.30;;
21084;SDS011;72320;50.082;20.000;2024-03-17T02:32:03;6.30;;;6.00;;
21084;SDS011;72320;50.082;20.000;2024-03-17T02:34:49;6.30;;;6.00;;
21084;SDS011;72320;50.082;20.000;2024-03-17T02:37:37;6.10;;;5.80;;
21084;SDS011;72320;50.082;20.000;2024-03-17T02:40:22;6.00;;;5.70;;
21084;SDS011;72320;50.082;20.000;2024-03-17T02:43:08;6.00;;;5.70;;
21084;SDS011;72320;50.082;20.000;2024-03-17T02:45:54;6.80;;;6.40;;
21084;SDS011;72320;50.082;20.000;2024-03-17T02:48:40;5.90;;;5.60;;
21084;SDS011;72320;50.082;20.000;2024-03-17T02:51:30;5.70;;;5.40;;
21084;SDS011;72320;50.082;20.000;2024-03-17T02:53:55;6.00;;;5.70;;
21084;SDS011;72320;50.082;20.000;2024-03-17T02:56:42;6.50;;;6.10;;
21084;SDS011;72320;50.082;20.000;2024-03-17T02:59:28;6.20;;;5.90;;
21084;SDS011;72320;50.082;20.000;2024-03-17T03:02:02;6.10;;;5.80;;
21084;SDS011;72320;50.082;20.000;2024-03-17T03:04:48;6.10;;;5.80;;
21084;SDS011;72320;50.082;20.000;2024-03-17T03:07:36;6.10;;;5.80;;
21084;SDS011;72320;50.082;20.000;2024-03-17T03:10:23;6.10;;;5.80;;
21084;SDS011;72320;50.082;20.000;2024-03-17T03:13:08;6.00;;;5.70;;
21084;SDS011;72320;50.082;20.000;2024-03-17T03:15:55;6.20;;;5.90;;
21084;SDS011;72320;50.082;20.000;2024-03-17T03:18:41;6.50;;;6.20;;
21084;SDS011;72320;50.082;20.000;2024-03-17T03:21:27;6.20;;;5.90;;
21084;SDS011;72320;50.082;20.000;2024-03-17T03:24:14;6.30;;;6.00;;
21084;SDS011;72320;50.082;20.000;2024-03-17T03:27:00;6.50;;;6.20;;
21084;SDS011;72320;50.082;20.000;2024-03-17T03:29:46;6.00;;;5.70;;
21084;SDS011;72320;50.082;20.000;2024-03-17T03:32:31;6.10;;;5.80;;
21084;SDS011;72320;50.082;20.000;2024-03-17T03:34:57;6.40;;;6.10;;
21084;SDS011;72320;50.082;20.000;2024-03-17T03:37:25;7.60;;;7.20;;
21084;SDS011;72320;50.082;20.000;2024-03-17T03:40:11;6.40;;;6.10;;
21084;SDS011;72320;50.082;20.000;2024-03-17T03:43:03;6.30;;;6.00;;
21084;SDS011;72320;50.082;20.000;2024-03-17T03:45:49;6.20;;;5.90;;
21084;SDS011;72320;50.082;20.000;2024-03-17T03:48:16;6.90;;;6.50;;
21084;SDS011;72320;50.082;20.000;2024-03-17T03:50:42;6.80;;;6.50;;
21084;SDS011;72320;50.082;20.000;2024-03-17T03:53:09;7.00;;;6.60;;
21084;SDS011;72320;50.082;20.000;2024-03-17T03:55:37;6.90;;;6.50;;
21084;SDS011;72320;50.082;20.000;2024-03-17T03:58:02;7.50;;;7.10;;
21084;SDS011;72320;50.082;20.000;2024-03-17T04:00:29;7.70;;;7.30;;
21084;SDS011;72320;50.082;20.000;2024-03-17T04:02:58;7.90;;;7.50;;
21084;SDS011;72320;50.082;20.000;2024-03-17T04:05:44;7.70;;;7.30;;
21084;SDS011;72320;50.082;20.000;2024-03-17T04:08:34;7.60;;;7.20;;
21084;SDS011;72320;50.082;20.000;2024-03-17T04:11:02;8.00;;;7.50;;
21084;SDS011;72320;50.082;20.000;2024-03-17T04:13:50;8.00;;;7.50;;
21084;SDS011;72320;50.082;20.000;2024-03-17T04:16:36;7.50;;;7.10;;
21084;SDS011;72320;50.082;20.000;2024-03-17T04:19:22;7.50;;;7.10;;
21084;SDS011;72320;50.082;20.000;2024-03-17T04:22:08;7.40;;;7.00;;
21084;SDS011;72320;50.082;20.000;2024-03-17T04:24:53;7.60;;;7.20;;
21084;SDS011;72320;50.082;20.000;2024-03-17T04:27:39;7.70;;;7.30;;
21084;SDS011;72320;50.082;20.000;2024-03-17T04:30:25;7.60;;;7.20;;
21084;SDS011;72320;50.082;20.000;2024-03-17T04:33:11;7.60;;;7.10;;
21084;SDS011;72320;50.082;20.000;2024-03-17T04:35:58;7.80;;;7.30;;
21084;SDS011;72320;50.082;20.000;2024-03-17T04:38:45;8.00;;;7.50;;
21084;SDS011;72320;50.082;20.000;2024-03-17T04:41:30;8.60;;;8.10;;
21084;SDS011;72320;50.082;20.000;2024-03-17T04:44:17;8.40;;;7.90;;
21084;SDS011;72320;50.082;20.000;2024-03-17T04:47:04;8.20;;;7.70;;
21084;SDS011;72320;50.082;20.000;2024-03-17T04:49:53;9.10;;;8.60;;
21084;SDS011;72320;50.082;20.000;2024-03-17T04:52:39;8.10;;;7.70;;
21084;SDS011;72320;50.082;20.000;2024-03-17T04:55:05;8.80;;;8.30;;
21084;SDS011;72320;50.082;20.000;2024-03-17T04:57:52;9.00;;;8.50;;
21084;SDS011;72320;50.082;20.000;2024-03-17T05:00:38;9.10;;;8.60;;
21084;SDS011;72320;50.082;20.000;2024-03-17T05:03:19;9.20;;;8.60;;
21084;SDS011;72320;50.082;20.000;2024-03-17T05:06:06;8.40;;;8.00;;
21084;SDS011;72320;50.082;20.000;2024-03-17T05:08:53;8.20;;;7.70;;
21084;SDS011;72320;50.082;20.000;2024-03-17T05:11:42;7.70;;;7.30;;
21084;SDS011;72320;50.082;20.000;2024-03-17T05:14:28;8.40;;;8.00;;
21084;SDS011;72320;50.082;20.000;2024-03-17T05:17:14;7.90;;;7.40;;
21084;SDS011;72320;50.082;20.000;2024-03-17T05:20:02;7.90;;;7.50;;
21084;SDS011;72320;50.082;20.000;2024-03-17T05:22:49;7.70;;;7.30;;
21084;SDS011;72320;50.082;20.000;2024-03-17T05:25:36;7.50;;;7.10;;
21084;SDS011;72320;50.082;20.000;2024-03-17T05:28:24;7.70;;;7.20;;
21084;SDS011;72320;50.082;20.000;2024-03-17T05:31:11;7.40;;;7.00;;
21084;SDS011;72320;50.082;20.000;2024-03-17T05:33:59;7.20;;;6.80;;
21084;SDS011;72320;50.082;20.000;2024-03-17T05:36:45;7.20;;;6.80;;
21084;SDS011;72320;50.082;20.000;2024-03-17T05:39:31;7.10;;;6.70;;
21084;SDS011;72320;50.082;20.000;2024-03-17T05:42:17;7.30;;;6.90;;
21084;SDS011;72320;50.082;20.000;2024-03-17T05:45:03;7.00;;;6.60;;
21084;SDS011;72320;50.082;20.000;2024-03-17T05:47:49;7.40;;;7.00;;
21084;SDS011;72320;50.082;20.000;2024-03-17T05:50:36;6.80;;;6.40;;
21084;SDS011;72320;50.082;20.000;2024-03-17T05:53:22;7.10;;;6.70;;
21084;SDS011;72320;50.082;20.000;2024-03-17T05:56:12;6.80;;;6.40;;
21084;SDS011;72320;50.082;20.000;2024-03-17T05:58:58;7.10;;;6.70;;
21084;SDS011;72320;50.082;20.000;2024-03-17T06:01:44;8.00;;;7.60;;
21084;SDS011;72320;50.082;20.000;2024-03-17T06:04:30;7.20;;;6.80;;
21084;SDS011;72320;50.082;20.000;2024-03-17T06:07:16;7.40;;;7.00;;
21084;SDS011;72320;50.082;20.000;2024-03-17T06:10:03;7.30;;;6.90;;
21084;SDS011;72320;50.082;20.000;2024-03-17T06:12:51;7.00;;;6.60;;
21084;SDS011;72320;50.082;20.000;2024-03-17T06:15:37;6.40;;;6.10;;
21084;SDS011;72320;50.082;20.000;2024-03-17T06:18:24;7.10;;;6.70;;
21084;SDS011;72320;50.082;20.000;2024-03-17T06:21:11;6.90;;;6.60;;
21084;SDS011;72320;50.082;20.000;2024-03-17T06:23:57;6.90;;;6.50;;
21084;SDS011;72320;50.082;20.000;2024-03-17T06:26:23;7.10;;;6.70;;
21084;SDS011;72320;50.082;20.000;2024-03-17T06:28:49;7.20;;;6.80;;
21084;SDS011;72320;50.082;20.000;2024-03-17T06:31:16;6.90;;;6.50;;
21084;SDS011;72320;50.082;20.000;2024-03-17T06:33:42;6.70;;;6.30;;
21084;SDS011;72320;50.082;20.000;2024-03-17T06:36:08;6.90;;;6.50;;
21084;SDS011;72320;50.082;20.000;2024-03-17T06:38:34;6.80;;;6.40;;
21084;SDS011;72320;50.082;20.000;2024-03-17T06:41:19;6.70;;;6.30;;
21084;SDS011;72320;50.082;20.000;2024-03-17T06:44:06;7.20;;;6.80;;
21084;SDS011;72320;50.082;20.000;2024-03-17T06:46:32;6.90;;;6.40;;
21084;SDS011;72320;50.082;20.000;2024-03-17T06:48:58;7.00;;;6.60;;
21084;SDS011;72320;50.082;20.000;2024-03-17T06:51:25;6.90;;;6.50;;
21084;SDS011;72320;50.082;20.000;2024-03-17T06:53:51;7.40;;;7.00;;
21084;SDS011;72320;50.082;20.000;2024-03-17T06:56:16;7.20;;;6.80;;
21084;SDS011;72320;50.082;20.000;2024-03-17T06:59:02;7.00;;;6.60;;
21084;SDS011;72320;50.082;20.000;2024-03-17T07:01:48;6.90;;;6.50;;
21084;SDS011;72320;50.082;20.000;2024-03-17T07:04:36;6.80;;;6.40;;
21084;SDS011;72320;50.082;20.000;2024-03-17T07:07:21;6.90;;;6.50;;
21084;SDS011;72320;50.082;20.000;2024-03-17T07:10:08;7.00;;;6.60;;
21084;SDS011;72320;50.082;20.000;2024-03-17T07:12:55;6.90;;;6.50;;
21084;SDS011;72320;50.082;20.000;2024-03-17T07:15:47;6.80;;;6.40;;
21084;SDS011;72320;50.082;20.000;2024-03-17T07:18:33;7.10;;;6.70;;
21084;SDS011;72320;50.082;20.000;2024-03-17T07:21:19;7.30;;;6.90;;
21084;SDS011;72320;50.082;20.000;2024-03-17T07:24:05;6.70;;;6.40;;
21084;SDS011;72320;50.082;20.000;2024-03-17T07:26:51;6.90;;;6.50;;
21084;SDS011;72320;50.082;20.000;2024-03-17T07:29:38;7.00;;;6.60;;
21084;SDS011;72320;50.082;20.000;2024-03-17T07:32:26;7.00;;;6.60;;
21084;SDS011;72320;50.082;20.000;2024-03-17T07:35:12;7.00;;;6.60;;
21084;SDS011;72320;50.082;20.000;2024-03-17T07:38:00;6.60;;;6.30;;
21084;SDS011;72320;50.082;20.000;2024-03-17T07:40:56;7.30;;;6.80;;
21084;SDS011;72320;50.082;20.000;2024-03-17T07:43:43;6.60;;;6.30;;
21084;SDS011;72320;50.082;20.000;2024-03-17T07:46:29;6.50;;;6.20;;
21084;SDS011;72320;50.082;20.000;2024-03-17T07:49:15;6.50;;;6.10;;
21084;SDS011;72320;50.082;20.000;2024-03-17T07:52:01;6.50;;;6.20;;
21084;SDS011;72320;50.082;20.000;2024-03-17T07:54:47;6.70;;;6.30;;
21084;SDS011;72320;50.082;20.000;2024-03-17T07:57:33;6.30;;;6.00;;
21084;SDS011;72320;50.082;20.000;2024-03-17T08:00:19;6.30;;;6.00;;
21084;SDS011;72320;50.082;20.000;2024-03-17T08:03:04;6.40;;;6.00;;
21084;SDS011;72320;50.082;20.000;2024-03-17T08:05:50;6.40;;;6.10;;
21084;SDS011;72320;50.082;20.000;2024-03-17T08:08:37;6.10;;;5.80;;
21084;SDS011;72320;50.082;20.000;2024-03-17T08:11:23;6.30;;;6.00;;
21084;SDS011;72320;50.082;20.000;2024-03-17T08:14:09;6.00;;;5.70;;
21084;SDS011;72320;50.082;20.000;2024-03-17T08:16:55;5.90;;;5.60;;
21084;SDS011;72320;50.082;20.000;2024-03-17T08:19:41;6.30;;;5.90;;
21084;SDS011;72320;50.082;20.000;2024-03-17T08:22:27;6.40;;;6.10;;
21084;SDS011;72320;50.082;20.000;2024-03-17T08:25:14;7.40;;;6.90;;
21084;SDS011;72320;50.082;20.000;2024-03-17T08:28:01;7.20;;;6.80;;
21084;SDS011;72320;50.082;20.000;2024-03-17T08:31:00;6.70;;;6.30;;
21084;SDS011;72320;50.082;20.000;2024-03-17T08:33:47;6.40;;;6.10;;
21084;SDS011;72320;50.082;20.000;2024-03-17T08:36:33;6.60;;;6.30;;
21084;SDS011;72320;50.082;20.000;2024-03-17T08:39:19;5.90;;;5.60;;
21084;SDS011;72320;50.082;20.000;2024-03-17T08:42:05;5.90;;;5.60;;
21084;SDS011;72320;50.082;20.000;2024-03-17T08:44:53;5.80;;;5.50;;
21084;SDS011;72320;50.082;20.000;2024-03-17T08:47:39;5.90;;;5.60;;
21084;SDS011;72320;50.082;20.000;2024-03-17T08:50:27;5.90;;;5.60;;
21084;SDS011;72320;50.082;20.000;2024-03-17T08:53:12;6.10;;;5.70;;
21084;SDS011;72320;50.082;20.000;2024-03-17T08:55:59;6.10;;;5.70;;
21084;SDS011;72320;50.082;20.000;2024-03-17T08:58:46;6.60;;;6.30;;
21084;SDS011;72320;50.082;20.000;2024-03-17T09:01:32;6.20;;;5.90;;
21084;SDS011;72320;50.082;20.000;2024-03-17T09:03:58;6.40;;;6.10;;
21084;SDS011;72320;50.082;20.000;2024-03-17T09:06:43;5.90;;;5.60;;
21084;SDS011;72320;50.082;20.000;2024-03-17T09:09:30;6.10;;;5.80;;
21084;SDS011;72320;50.082;20.000;2024-03-17T09:12:15;6.10;;;5.80;;
21084;SDS011;72320;50.082;20.000;2024-03-17T09:15:01;6.50;;;6.20;;
21084;SDS011;72320;50.082;20.000;2024-03-17T09:17:47;5.90;;;5.60;;
21084;SDS011;72320;50.082;20.000;2024-03-17T09:20:31;6.40;;;6.10;;
21084;SDS011;72320;50.082;20.000;2024-03-17T09:23:18;6.50;;;6.20;;
21084;SDS011;72320;50.082;20.000;2024-03-17T09:25:54;5.70;;;5.40;;
21084;SDS011;72320;50.082;20.000;2024-03-17T09:28:48;6.00;;;5.70;;
21084;SDS011;72320;50.082;20.000;2024-03-17T09:31:14;6.10;;;5.80;;
21084;SDS011;72320;50.082;20.000;2024-03-17T09:33:40;5.70;;;5.40;;
21084;SDS011;72320;50.082;20.000;2024-03-17T09:36:07;5.90;;;5.60;;
21084;SDS011;72320;50.082;20.000;2024-03-17T09:38:37;6.10;;;5.80;;
21084;SDS011;72320;50.082;20.000;2024-03-17T09:41:05;6.20;;;5.90;;
21084;SDS011;72320;50.082;20.000;2024-03-17T09:43:55;5.80;;;5.50;;
21084;SDS011;72320;50.082;20.000;2024-03-17T09:46:23;5.80;;;5.50;;
21084;SDS011;72320;50.082;20.000;2024-03-17T09:48:51;5.90;;;5.60;;
21084;SDS011;72320;50.082;20.000;2024-03-17T09:51:24;6.00;;;5.70;;
21084;SDS011;72320;50.082;20.000;2024-03-17T09:53:51;6.00;;;5.70;;
21084;SDS011;72320;50.082;20.000;2024-03-17T09:56:20;6.50;;;6.10;;
21084;SDS011;72320;50.082;20.000;2024-03-17T09:59:07;5.70;;;5.40;;
21084;SDS011;72320;50.082;20.000;2024-03-17T10:01:55;5.70;;;5.40;;
21084;SDS011;72320;50.082;20.000;2024-03-17T10:04:32;6.00;;;5.70;;
21084;SDS011;72320;50.082;20.000;2024-03-17T10:07:18;5.80;;;5.40;;
21084;SDS011;72320;50.082;20.000;2024-03-17T10:10:24;5.50;;;5.20;;
21084;SDS011;72320;50.082;20.000;2024-03-17T10:12:51;5.30;;;5.00;;
21084;SDS011;72320;50.082;20.000;2024-03-17T10:15:48;5.50;;;5.20;;
21084;SDS011;72320;50.082;20.000;2024-03-17T10:18:34;5.50;;;5.20;;
21084;SDS011;72320;50.082;20.000;2024-03-17T10:21:02;6.20;;;5.90;;
21084;SDS011;72320;50.082;20.000;2024-03-17T10:24:21;5.50;;;5.20;;
21084;SDS011;72320;50.082;20.000;2024-03-17T10:27:10;5.30;;;5.00;;
21084;SDS011;72320;50.082;20.000;2024-03-17T10:29:56;5.70;;;5.40;;
21084;SDS011;72320;50.082;20.000;2024-03-17T10:32:44;5.90;;;5.60;;
21084;SDS011;72320;50.082;20.000;2024-03-17T10:35:35;6.30;;;6.00;;
21084;SDS011;72320;50.082;20.000;2024-03-17T10:38:22;5.40;;;5.10;;
21084;SDS011;72320;50.082;20.000;2024-03-17T10:41:09;5.50;;;5.20;;
21084;SDS011;72320;50.082;20.000;2024-03-17T10:43:55;5.50;;;5.20;;
21084;SDS011;72320;50.082;20.000;2024-03-17T10:46:41;5.40;;;5.00;;
21084;SDS011;72320;50.082;20.000;2024-03-17T10:49:32;5.40;;;5.10;;
21084;SDS011;72320;50.082;20.000;2024-03-17T10:52:19;5.50;;;5.20;;
21084;SDS011;72320;50.082;20.000;2024-03-17T10:55:08;5.40;;;5.10;;
21084;SDS011;72320;50.082;20.000;2024-03-17T10:57:59;5.10;;;4.90;;
21084;SDS011;72320;50.082;20.000;2024-03-17T11:00:50;5.40;;;5.10;;
21084;SDS011;72320;50.082;20.000;2024-03-17T11:03:38;5.60;;;5.20;;
21084;SDS011;72320;50.082;20.000;2024-03-17T11:06:23;5.30;;;5.00;;
21084;SDS011;72320;50.082;20.000;2024-03-17T11:09:14;5.40;;;5.10;;
21084;SDS011;72320;50.082;20.000;2024-03-17T11:12:02;5.20;;;4.90;;
21084;SDS011;72320;50.082;20.000;2024-03-17T11:14:48;5.20;;;4.90;;
21084;SDS011;72320;50.082;20.000;2024-03-17T11:17:29;5.10;;;4.90;;
21084;SDS011;72320;50.082;20.000;2024-03-17T11:20:21;5.30;;;5.00;;
21084;SDS011;72320;50.082;20.000;2024-03-17T11:23:26;5.70;;;5.40;;
21084;SDS011;72320;50.082;20.000;2024-03-17T11:25:54;5.40;;;5.10;;
21084;SDS011;72320;50.082;20.000;2024-03-17T11:31:39;5.70;;;5.40;;
21084;SDS011;72320;50.082;20.000;2024-03-17T11:34:36;6.30;;;6.00;;
21084;SDS011;72320;50.082;20.000;2024-03-17T11:37:42;5.50;;;5.30;;
21084;SDS011;72320;50.082;20.000;2024-03-17T11:40:29;6.10;;;5.70;;
21084;SDS011;72320;50.082;20.000;2024-03-17T11:43:16;6.20;;;5.90;;
21084;SDS011;72320;50.082;20.000;2024-03-17T11:46:03;5.60;;;5.30;;
21084;SDS011;72320;50.082;20.000;2024-03-17T11:48:49;5.70;;;5.40;;
21084;SDS011;72320;50.082;20.000;2024-03-17T11:51:35;5.70;;;5.40;;
21084;SDS011;72320;50.082;20.000;2024-03-17T11:54:25;5.60;;;5.30;;
21084;SDS011;72320;50.082;20.000;2024-03-17T11:57:23;5.70;;;5.40;;
21084;SDS011;72320;50.082;20.000;2024-03-17T12:00:22;5.90;;;5.60;;
21084;SDS011;72320;50.082;20.000;2024-03-17T12:03:11;5.90;;;5.60;;
21084;SDS011;72320;50.082;20.000;2024-03-17T12:05:39;4.90;;;4.60;;
21084;SDS011;72320;50.082;20.000;2024-03-17T12:08:25;5.10;;;4.80;;
21084;SDS011;72320;50.082;20.000;2024-03-17T12:11:17;5.20;;;4.90;;
21084;SDS011;72320;50.082;20.000;2024-03-17T12:14:20;5.40;;;5.10;;
21084;SDS011;72320;50.082;20.000;2024-03-17T12:17:25;5.50;;;5.20;;
21084;SDS011;72320;50.082;20.000;2024-03-17T12:20:37;5.10;;;4.80;;
21084;SDS011;72320;50.082;20.000;2024-03-17T12:23:23;4.90;;;4.70;;
21084;SDS011;72320;50.082;20.000;2024-03-17T12:26:15;5.10;;;4.80;;
21084;SDS011;72320;50.082;20.000;2024-03-17T12:28:46;5.10;;;4.90;;
21084;SDS011;72320;50.082;20.000;2024-03-17T12:31:14;5.00;;;4.70;;
21084;SDS011;72320;50.082;20.000;2024-03-17T12:33:40;5.20;;;4.90;;
21084;SDS011;72320;50.082;20.000;2024-03-17T12:36:11;5.60;;;5.30;;
21084;SDS011;72320;50.082;20.000;2024-03-17T12:38:39;5.50;;;5.10;;
21084;SDS011;72320;50.082;20.000;2024-03-17T12:41:16;6.70;;;6.40;;
21084;SDS011;72320;50.082;20.000;2024-03-17T12:44:02;5.50;;;5.10;;
21084;SDS011;72320;50.082;20.000;2024-03-17T12:46:28;5.30;;;5.00;;
21084;SDS011;72320;50.082;20.000;2024-03-17T12:49:00;5.40;;;5.10;;
21084;SDS011;72320;50.082;20.000;2024-03-17T12:51:34;4.60;;;4.40;;
21084;SDS011;72320;50.082;20.000;2024-03-17T12:54:17;4.70;;;4.40;;
21084;SDS011;72320;50.082;20.000;2024-03-17T12:57:13;5.50;;;5.20;;
21084;SDS011;72320;50.082;20.000;2024-03-17T12:59:57;5.00;;;4.70;;
21084;SDS011;72320;50.082;20.000;2024-03-17T13:02:42;5.00;;;4.70;;
21084;SDS011;72320;50.082;20.000;2024-03-17T13:05:31;5.20;;;5.00;;
21084;SDS011;72320;50.082;20.000;2024-03-17T13:08:18;5.10;;;4.90;;
21084;SDS011;72320;50.082;20.000;2024-03-17T13:11:03;5.10;;;4.80;;
21084;SDS011;72320;50.082;20.000;2024-03-17T13:13:49;5.00;;;4.70;;
21084;SDS011;72320;50.082;20.000;2024-03-17T13:16:35;4.30;;;4.10;;
21084;SDS011;72320;50.082;20.000;2024-03-17T13:19:21;4.80;;;4.50;;
21084;SDS011;72320;50.082;20.000;2024-03-17T13:22:10;4.70;;;4.50;;
21084;SDS011;72320;50.082;20.000;2024-03-17T13:24:55;4.50;;;4.30;;
21084;SDS011;72320;50.082;20.000;2024-03-17T13:27:44;5.20;;;4.90;;
21084;SDS011;72320;50.082;20.000;2024-03-17T13:30:33;4.40;;;4.20;;
21084;SDS011;72320;50.082;20.000;2024-03-17T13:33:21;4.70;;;4.50;;
21084;SDS011;72320;50.082;20.000;2024-03-17T13:36:08;5.20;;;4.90;;
21084;SDS011;72320;50.082;20.000;2024-03-17T13:38:55;6.00;;;5.70;;
21084;SDS011;72320;50.082;20.000;2024-03-17T13:41:41;5.20;;;4.90;;
21084;SDS011;72320;50.082;20.000;2024-03-17T13:44:27;4.90;;;4.70;;
21084;SDS011;72320;50.082;20.000;2024-03-17T13:47:14;5.30;;;5.00;;
21084;SDS011;72320;50.082;20.000;2024-03-17T13:50:00;5.70;;;5.40;;
21084;SDS011;72320;50.082;20.000;2024-03-17T13:52:46;5.20;;;5.00;;
21084;SDS011;72320;50.082;20.000;2024-03-17T13:55:32;4.80;;;4.60;;
21084;SDS011;72320;50.082;20.000;2024-03-17T13:58:18;5.30;;;5.00;;
21084;SDS011;72320;50.082;20.000;2024-03-17T14:01:03;5.20;;;4.90;;
21084;SDS011;72320;50.082;20.000;2024-03-17T14:03:49;5.10;;;4.90;;
21084;SDS011;72320;50.082;20.000;2024-03-17T14:06:35;4.80;;;4.60;;
21084;SDS011;72320;50.082;20.000;2024-03-17T14:09:23;4.60;;;4.40;;
21084;SDS011;72320;50.082;20.000;2024-03-17T14:12:08;4.80;;;4.60;;
21084;SDS011;72320;50.082;20.000;2024-03-17T14:14:54;4.60;;;4.40;;
21084;SDS011;72320;50.082;20.000;2024-03-17T14:17:46;5.00;;;4.80;;
21084;SDS011;72320;50.082;20.000;2024-03-17T14:20:33;5.10;;;4.90;;
21084;SDS011;72320;50.082;20.000;2024-03-17T14:23:19;5.50;;;5.20;;
21084;SDS011;72320;50.082;20.000;2024-03-17T14:25:46;5.00;;;4.70;;
21084;SDS011;72320;50.082;20.000;2024-03-17T14:28:33;5.30;;;5.00;;
21084;SDS011;72320;50.082;20.000;2024-03-17T14:31:20;5.20;;;4.90;;
21084;SDS011;72320;50.082;20.000;2024-03-17T14:34:03;5.00;;;4.70;;
21084;SDS011;72320;50.082;20.000;2024-03-17T14:36:49;5.40;;;5.10;;
21084;SDS011;72320;50.082;20.000;2024-03-17T14:39:37;5.10;;;4.90;;
21084;SDS011;72320;50.082;20.000;2024-03-17T14:42:23;5.40;;;5.20;;
21084;SDS011;72320;50.082;20.000;2024-03-17T14:45:09;5.20;;;5.00;;
21084;SDS011;72320;50.082;20.000;2024-03-17T14:47:56;5.40;;;5.10;;
21084;SDS011;72320;50.082;20.000;2024-03-17T14:50:43;4.90;;;4.70;;
21084;SDS011;72320;50.082;20.000;2024-03-17T14:53:28;4.80;;;4.60;;
21084;SDS011;72320;50.082;20.000;2024-03-17T14:56:15;5.20;;;4.90;;
21084;SDS011;72320;50.082;20.000;2024-03-17T14:59:02;5.40;;;5.10;;
21084;SDS011;72320;50.082;20.000;2024-03-17T15:01:48;4.70;;;4.50;;
21084;SDS011;72320;50.082;20.000;2024-03-17T15:04:33;5.00;;;4.80;;
21084;SDS011;72320;50.082;20.000;2024-03-17T15:07:20;5.00;;;4.80;;
21084;SDS011;72320;50.082;20.000;2024-03-17T15:10:26;4.90;;;4.70;;
21084;SDS011;72320;50.082;20.000;2024-03-17T15:13:12;5.00;;;4.70;;
21084;SDS011;72320;50.082;20.000;2024-03-17T15:15:54;5.20;;;4.90;;
21084;SDS011;72320;50.082;20.000;2024-03-17T15:18:41;5.30;;;5.00;;
21084;SDS011;72320;50.082;20.000;2024-03-17T15:21:27;5.50;;;5.20;;
21084;SDS011;72320;50.082;20.000;2024-03-17T15:24:13;5.20;;;5.00;;
21084;SDS011;72320;50.082;20.000;2024-03-17T15:26:58;5.80;;;5.50;;
21084;SDS011;72320;50.082;20.000;2024-03-17T15:29:44;5.20;;;4.90;;
21084;SDS011;72320;50.082;20.000;2024-03-17T15:32:30;5.40;;;5.10;;
21084;SDS011;72320;50.082;20.000;2024-03-17T15:35:16;5.30;;;5.00;;
21084;SDS011;72320;50.082;20.000;2024-03-17T15:38:02;5.30;;;5.00;;
21084;SDS011;72320;50.082;20.000;2024-03-17T15:40:29;5.90;;;5.60;;
21084;SDS011;72320;50.082;20.000;2024-03-17T15:42:55;5.70;;;5.40;;
21084;SDS011;72320;50.082;20.000;2024-03-17T15:45:24;5.80;;;5.50;;
21084;SDS011;72320;50.082;20.000;2024-03-17T15:47:50;5.70;;;5.40;;
21084;SDS011;72320;50.082;20.000;2024-03-17T15:50:20;6.60;;;6.20;;
21084;SDS011;72320;50.082;20.000;2024-03-17T15:53:06;6.30;;;5.90;;
21084;SDS011;72320;50.082;20.000;2024-03-17T15:55:32;6.00;;;5.70;;
21084;SDS011;72320;50.082;20.000;2024-03-17T15:57:59;5.90;;;5.60;;
21084;SDS011;72320;50.082;20.000;2024-03-17T16:00:25;7.20;;;6.80;;
21084;SDS011;72320;50.082;20.000;2024-03-17T16:02:54;6.30;;;6.00;;
21084;SDS011;72320;50.082;20.000;2024-03-17T16:05:40;6.70;;;6.30;;
21084;SDS011;72320;50.082;20.000;2024-03-17T16:08:08;7.10;;;6.70;;
21084;SDS011;72320;50.082;20.000;2024-03-17T16:10:35;6.00;;;5.70;;